Time;durP1;ratioP1;P1;durP2;ratioP2;P2;SDS_P1;SDS_P2;PMS_P1;PMS_P2;Temp;Humidity;BMP_temperature;BMP_pressure;BME280_temperature;BME280_humidity;BME280_pressure;Samples;Min_cycle;Max_cycle;Signal;HPM_P1;HPM_P2
2021/12/24 00:00:16;;;;;;;69.47;36.75;;;;;;;;;;4974552;28;89661;-69
2021/12/24 00:02:43;;;;;;;77.45;39.22;;;;;;;;;;4985544;28;90859;-69
2021/12/24 00:05:10;;;;;;;73.05;38.72;;;;;;;;;;4982479;28;90101;-69
2021/12/24 00:07:40;;;;;;;69.85;35.78;;;;;;;;;;4982166;28;89743;-69
2021/12/24 00:10:08;;;;;;;69.57;36.47;;;;;;;;;;4982097;28;91026;-69
2021/12/24 00:12:37;;;;;;;78.35;38.40;;;;;;;;;;4984373;28;90624;-69
2021/12/24 00:15:17;;;;;;;81.68;39.28;;;;;;;;;;4983079;28;90114;-68
2021/12/24 00:17:43;;;;;;;72.15;37.67;;;;;;;;;;4988252;28;90296;-69
2021/12/24 00:23:19;;;;;;;66.83;34.63;;;;;;;;;;4984323;28;90116;-69
2021/12/24 00:36:40;;;;;;;54.33;30.42;;;;;;;;;;4981589;28;89844;-68
2021/12/24 00:39:07;;;;;;;49.78;28.83;;;;;;;;;;4993837;28;92675;-69
2021/12/24 00:41:33;;;;;;;52.25;29.55;;;;;;;;;;4988815;28;92246;-69
2021/12/24 00:43:59;;;;;;;56.45;32.20;;;;;;;;;;4988157;28;89934;-69
2021/12/24 00:46:26;;;;;;;53.35;30.17;;;;;;;;;;4987491;28;89838;-69
2021/12/24 00:48:53;;;;;;;53.55;29.98;;;;;;;;;;4986135;28;89647;-69
2021/12/24 00:52:07;;;;;;;46.53;28.23;;;;;;;;;;4986667;28;89877;-69
2021/12/24 00:56:55;;;;;;;52.97;29.60;;;;;;;;;;4999109;28;91327;-69
2021/12/24 00:59:22;;;;;;;50.42;28.23;;;;;;;;;;5006373;28;91832;-69
2021/12/24 01:01:48;;;;;;;56.80;28.50;;;;;;;;;;4984349;28;90358;-69
2021/12/24 01:04:15;;;;;;;51.85;27.73;;;;;;;;;;4981125;28;89881;-69
2021/12/24 01:06:42;;;;;;;53.80;29.55;;;;;;;;;;4993248;28;89359;-69
2021/12/24 01:09:08;;;;;;;49.85;29.13;;;;;;;;;;4976931;28;90107;-69
2021/12/24 01:11:34;;;;;;;44.58;25.98;;;;;;;;;;4983847;28;89913;-69
2021/12/24 01:14:01;;;;;;;51.30;26.80;;;;;;;;;;4994793;28;90544;-69
2021/12/24 01:16:39;;;;;;;43.55;26.10;;;;;;;;;;4980781;28;89728;-68
2021/12/24 01:19:12;;;;;;;40.95;23.98;;;;;;;;;;4981134;28;89682;-68
2021/12/24 01:24:17;;;;;;;38.58;23.08;;;;;;;;;;4993760;28;89843;-69
2021/12/24 01:26:59;;;;;;;42.58;26.20;;;;;;;;;;4998863;28;89831;-69
2021/12/24 01:40:38;;;;;;;49.33;26.00;;;;;;;;;;4984062;28;91577;-69
2021/12/24 01:43:05;;;;;;;47.70;25.97;;;;;;;;;;4985030;28;92210;-69
2021/12/24 01:45:33;;;;;;;50.42;29.17;;;;;;;;;;4982338;28;89067;-68
2021/12/24 01:48:03;;;;;;;55.45;30.33;;;;;;;;;;4991948;28;89742;-69
2021/12/24 01:50:33;;;;;;;47.50;20.38;;;;;;;;;;4993172;28;90469;-69
2021/12/24 01:53:01;;;;;;;71.97;32.03;;;;;;;;;;4991339;28;93290;-69
2021/12/24 01:55:29;;;;;;;69.10;35.70;;;;;;;;;;5015569;28;91734;-69
2021/12/24 01:57:56;;;;;;;63.95;32.72;;;;;;;;;;4978064;28;89142;-69
2021/12/24 02:00:24;;;;;;;63.85;31.17;;;;;;;;;;4989242;28;92196;-69
2021/12/24 02:02:51;;;;;;;82.80;37.33;;;;;;;;;;5008086;27;89501;-69
2021/12/24 02:05:18;;;;;;;60.70;33.55;;;;;;;;;;4984921;28;89826;-69
2021/12/24 02:07:45;;;;;;;77.25;35.50;;;;;;;;;;4986760;28;90909;-69
2021/12/24 02:10:12;;;;;;;75.13;38.65;;;;;;;;;;4980226;28;89453;-69
2021/12/24 02:12:39;;;;;;;52.22;29.88;;;;;;;;;;4982205;28;90556;-69
2021/12/24 02:15:12;;;;;;;46.20;23.63;;;;;;;;;;4997376;28;89776;-69
2021/12/24 02:28:40;;;;;;;80.00;37.13;;;;;;;;;;4990414;28;92895;-69
2021/12/24 02:31:11;;;;;;;72.05;30.50;;;;;;;;;;5018393;28;91699;-69
2021/12/24 02:33:39;;;;;;;56.63;30.52;;;;;;;;;;5012647;27;92106;-69
2021/12/24 02:36:05;;;;;;;43.50;21.92;;;;;;;;;;4992410;28;90001;-69
2021/12/24 02:38:32;;;;;;;55.35;26.85;;;;;;;;;;4981553;28;89047;-69
2021/12/24 02:41:01;;;;;;;52.35;29.42;;;;;;;;;;4980797;28;89834;-68
2021/12/24 02:43:27;;;;;;;45.80;25.50;;;;;;;;;;5014996;28;91599;-68
2021/12/24 02:45:57;;;;;;;62.72;29.08;;;;;;;;;;4983661;28;90150;-68
2021/12/24 02:56:26;;;;;;;41.58;25.38;;;;;;;;;;4988595;28;89738;-69
2021/12/24 02:58:53;;;;;;;45.92;25.58;;;;;;;;;;4974182;28;92355;-68
2021/12/24 03:01:23;;;;;;;48.60;25.00;;;;;;;;;;4974325;28;90019;-68
2021/12/24 03:03:51;;;;;;;35.20;18.52;;;;;;;;;;4974670;28;90409;-69
2021/12/24 03:06:18;;;;;;;32.78;17.40;;;;;;;;;;5013961;27;89641;-69
2021/12/24 03:08:45;;;;;;;42.15;21.08;;;;;;;;;;4979245;28;89844;-69
2021/12/24 03:11:12;;;;;;;31.95;16.13;;;;;;;;;;4986289;28;90818;-68
2021/12/24 03:13:39;;;;;;;35.65;21.45;;;;;;;;;;4981176;28;91290;-68
2021/12/24 03:16:06;;;;;;;33.45;15.55;;;;;;;;;;4992035;28;91853;-69
2021/12/24 03:18:36;;;;;;;41.25;18.00;;;;;;;;;;4984613;28;92415;-68
2021/12/24 03:21:13;;;;;;;34.88;18.70;;;;;;;;;;4975800;28;90015;-68
2021/12/24 03:23:42;;;;;;;36.78;17.27;;;;;;;;;;4985943;28;90659;-68
2021/12/24 03:26:11;;;;;;;35.45;18.55;;;;;;;;;;4975508;28;90147;-69
2021/12/24 03:28:37;;;;;;;36.00;17.42;;;;;;;;;;4992312;28;93023;-69
2021/12/24 03:31:05;;;;;;;32.25;17.92;;;;;;;;;;4983319;28;90645;-69
2021/12/24 03:33:33;;;;;;;38.40;18.00;;;;;;;;;;5012815;27;90087;-68
2021/12/24 03:36:01;;;;;;;39.42;19.38;;;;;;;;;;4999998;28;90200;-68
2021/12/24 03:38:28;;;;;;;36.47;17.95;;;;;;;;;;5009925;27;91139;-69
2021/12/24 03:40:54;;;;;;;44.17;19.67;;;;;;;;;;5014920;27;91193;-69
2021/12/24 03:43:21;;;;;;;36.25;18.15;;;;;;;;;;5014615;27;91192;-68
2021/12/24 03:45:59;;;;;;;36.50;17.67;;;;;;;;;;5020690;27;89910;-69
2021/12/24 03:48:45;;;;;;;28.55;16.70;;;;;;;;;;4990612;28;93365;-69
2021/12/24 03:56:28;;;;;;;33.30;16.73;;;;;;;;;;4994521;28;90122;-69
2021/12/24 03:58:54;;;;;;;41.67;18.98;;;;;;;;;;4994542;28;89309;-69
2021/12/24 04:01:41;;;;;;;39.03;18.08;;;;;;;;;;4977210;28;89574;-69
2021/12/24 04:04:26;;;;;;;40.83;18.25;;;;;;;;;;4977208;28;89820;-67
2021/12/24 04:07:12;;;;;;;35.15;17.20;;;;;;;;;;4986444;28;89148;-67
2021/12/24 04:10:42;;;;;;;38.42;16.58;;;;;;;;;;4981427;28;89606;-68
2021/12/24 04:13:04;;;;;;;49.00;17.77;;;;;;;;;;4972422;28;89308;-69
2021/12/24 04:15:30;;;;;;;34.50;15.32;;;;;;;;;;4991067;28;90120;-68
2021/12/24 04:17:57;;;;;;;44.97;17.73;;;;;;;;;;4977742;28;89429;-68
2021/12/24 04:25:53;;;;;;;34.75;16.45;;;;;;;;;;4993773;28;91904;-68
2021/12/24 04:28:20;;;;;;;31.20;15.32;;;;;;;;;;5007057;28;90798;-69
2021/12/24 04:30:51;;;;;;;34.13;16.52;;;;;;;;;;4995314;28;90358;-68
2021/12/24 04:33:23;;;;;;;32.78;14.88;;;;;;;;;;4978750;28;89686;-68
2021/12/24 04:35:58;;;;;;;29.10;14.97;;;;;;;;;;4983524;28;89354;-68
2021/12/24 04:52:00;;;;;;;37.13;12.70;;;;;;;;;;4994522;28;89679;-69
2021/12/24 05:05:22;;;;;;;32.03;11.68;;;;;;;;;;4990309;28;93574;-69
2021/12/24 05:10:24;;;;;;;20.73;8.93;;;;;;;;;;4993024;28;98201;-68
2021/12/24 05:12:50;;;;;;;25.95;10.18;;;;;;;;;;4995148;28;93666;-68
2021/12/24 05:15:21;;;;;;;23.98;10.85;;;;;;;;;;4989873;28;94208;-68
2021/12/24 05:18:29;;;;;;;33.40;9.77;;;;;;;;;;4972064;28;93413;-68
2021/12/24 05:21:36;;;;;;;22.95;9.02;;;;;;;;;;4978024;28;94915;-69
2021/12/24 05:24:04;;;;;;;35.45;9.88;;;;;;;;;;4989063;28;95200;-69
2021/12/24 05:26:32;;;;;;;28.02;9.77;;;;;;;;;;4992672;28;93276;-69
2021/12/24 05:28:58;;;;;;;33.60;10.45;;;;;;;;;;4996231;28;92898;-69
2021/12/24 05:31:25;;;;;;;26.00;9.90;;;;;;;;;;4987894;28;96253;-69
2021/12/24 05:33:52;;;;;;;25.60;9.30;;;;;;;;;;4975293;28;95044;-69
2021/12/24 05:36:20;;;;;;;23.23;8.38;;;;;;;;;;4988255;28;93925;-69
2021/12/24 05:38:47;;;;;;;28.98;8.65;;;;;;;;;;5016552;27;94973;-69
2021/12/24 05:41:14;;;;;;;28.50;8.38;;;;;;;;;;4986460;28;92748;-69
2021/12/24 05:43:40;;;;;;;23.33;7.57;;;;;;;;;;4982998;28;92930;-69
2021/12/24 05:46:07;;;;;;;18.92;8.30;;;;;;;;;;4987578;28;96635;-68
2021/12/24 05:48:46;;;;;;;23.02;8.23;;;;;;;;;;4978103;28;92582;-68
2021/12/24 05:51:13;;;;;;;14.70;6.57;;;;;;;;;;4976148;28;93096;-69
2021/12/24 05:54:15;;;;;;;26.25;8.40;;;;;;;;;;4977474;28;94007;-69
2021/12/24 05:56:42;;;;;;;30.40;8.57;;;;;;;;;;4991280;28;92491;-69
2021/12/24 05:59:17;;;;;;;19.10;7.13;;;;;;;;;;4986314;28;95072;-69
2021/12/24 06:01:46;;;;;;;22.83;6.13;;;;;;;;;;4979464;28;92875;-69
2021/12/24 06:04:12;;;;;;;34.97;8.23;;;;;;;;;;4986454;28;93184;-68
2021/12/24 06:06:39;;;;;;;18.17;6.40;;;;;;;;;;4980773;28;93479;-68
2021/12/24 06:09:05;;;;;;;28.17;8.82;;;;;;;;;;4983693;28;93512;-69
2021/12/24 06:11:31;;;;;;;12.05;4.28;;;;;;;;;;4984437;28;93127;-69
2021/12/24 06:13:58;;;;;;;28.67;7.78;;;;;;;;;;4983637;28;94029;-69
2021/12/24 06:16:24;;;;;;;28.38;7.15;;;;;;;;;;4979690;28;92137;-69
2021/12/24 06:18:54;;;;;;;28.45;9.68;;;;;;;;;;4990893;28;92662;-70
2021/12/24 06:21:21;;;;;;;21.92;7.03;;;;;;;;;;4983965;28;92548;-68
2021/12/24 06:23:48;;;;;;;26.23;9.30;;;;;;;;;;4981841;28;94894;-68
2021/12/24 06:26:14;;;;;;;36.65;7.63;;;;;;;;;;4979358;28;94491;-68
2021/12/24 06:28:41;;;;;;;29.48;8.52;;;;;;;;;;4984472;28;92585;-69
2021/12/24 06:31:07;;;;;;;25.38;6.72;;;;;;;;;;4983761;28;92958;-69
2021/12/24 06:33:34;;;;;;;31.02;7.80;;;;;;;;;;4984598;28;94417;-69
2021/12/24 06:36:00;;;;;;;25.13;6.45;;;;;;;;;;4988549;28;92446;-68
2021/12/24 06:38:27;;;;;;;24.58;6.57;;;;;;;;;;4983405;28;94135;-69
2021/12/24 06:40:53;;;;;;;33.97;8.32;;;;;;;;;;4989051;28;92450;-69
2021/12/24 06:43:20;;;;;;;21.20;6.00;;;;;;;;;;4977572;28;94913;-69
2021/12/24 06:45:49;;;;;;;29.30;6.78;;;;;;;;;;4984710;28;94171;-68
2021/12/24 06:48:15;;;;;;;30.42;6.70;;;;;;;;;;4974773;28;94865;-69
2021/12/24 06:50:41;;;;;;;33.78;7.90;;;;;;;;;;4986725;28;95700;-68
2021/12/24 06:53:08;;;;;;;37.00;13.32;;;;;;;;;;4983439;28;93432;-69
2021/12/24 06:55:36;;;;;;;23.15;6.95;;;;;;;;;;4979359;28;92852;-69
2021/12/24 06:58:06;;;;;;;25.67;6.45;;;;;;;;;;4979584;28;92521;-69
2021/12/24 07:00:33;;;;;;;27.20;6.60;;;;;;;;;;4980441;28;93463;-69
2021/12/24 07:03:00;;;;;;;28.33;7.03;;;;;;;;;;4994610;28;92621;-69
2021/12/24 07:05:26;;;;;;;23.50;6.75;;;;;;;;;;4980749;28;93744;-69
2021/12/24 07:07:53;;;;;;;35.72;6.90;;;;;;;;;;4976649;28;93937;-69
2021/12/24 07:10:21;;;;;;;24.45;6.43;;;;;;;;;;4980007;28;93405;-68
2021/12/24 07:12:47;;;;;;;23.95;6.10;;;;;;;;;;4978888;28;96524;-68
2021/12/24 07:15:16;;;;;;;20.17;6.40;;;;;;;;;;4971729;28;92536;-68
2021/12/24 07:17:43;;;;;;;38.60;8.70;;;;;;;;;;4974830;28;94081;-69
2021/12/24 07:20:10;;;;;;;39.33;11.48;;;;;;;;;;4972682;28;94359;-68
2021/12/24 07:22:36;;;;;;;32.10;7.35;;;;;;;;;;4981002;28;92452;-68
2021/12/24 07:25:06;;;;;;;22.20;6.47;;;;;;;;;;4981509;28;94034;-68
2021/12/24 07:27:33;;;;;;;24.40;8.70;;;;;;;;;;4976010;28;92790;-68
2021/12/24 07:29:59;;;;;;;28.52;7.78;;;;;;;;;;4993756;28;92985;-68
2021/12/24 07:32:26;;;;;;;30.67;7.25;;;;;;;;;;4980874;28;95095;-68
2021/12/24 07:34:52;;;;;;;28.70;7.55;;;;;;;;;;4980080;28;94118;-68
2021/12/24 07:37:19;;;;;;;28.48;7.28;;;;;;;;;;4979544;28;97130;-68
2021/12/24 07:39:45;;;;;;;41.60;8.43;;;;;;;;;;4982030;28;93734;-68
2021/12/24 07:42:11;;;;;;;40.88;7.28;;;;;;;;;;4978860;28;93639;-68
2021/12/24 07:44:40;;;;;;;31.20;8.38;;;;;;;;;;5005354;28;93178;-68
2021/12/24 07:47:15;;;;;;;34.67;7.18;;;;;;;;;;4978886;28;92484;-67
2021/12/24 07:49:43;;;;;;;27.65;8.05;;;;;;;;;;4974494;28;93660;-67
2021/12/24 07:52:12;;;;;;;26.98;8.27;;;;;;;;;;4978318;28;93395;-67
2021/12/24 07:54:39;;;;;;;28.73;9.18;;;;;;;;;;4972832;28;91764;-68
2021/12/24 07:57:06;;;;;;;39.63;7.78;;;;;;;;;;4981879;28;95504;-68
2021/12/24 07:59:37;;;;;;;28.17;7.45;;;;;;;;;;4979902;28;94963;-68
2021/12/24 08:02:15;;;;;;;30.85;6.90;;;;;;;;;;4977269;28;96802;-68
2021/12/24 08:04:45;;;;;;;31.88;8.35;;;;;;;;;;4980639;28;94589;-68
2021/12/24 08:07:12;;;;;;;28.08;7.68;;;;;;;;;;4980304;28;93604;-68
2021/12/24 08:09:39;;;;;;;37.67;6.60;;;;;;;;;;4979829;28;93090;-68
2021/12/24 08:12:06;;;;;;;27.48;7.80;;;;;;;;;;4977280;28;93668;-67
2021/12/24 08:14:33;;;;;;;19.08;6.90;;;;;;;;;;4987402;28;92497;-68
2021/12/24 08:16:59;;;;;;;28.42;8.45;;;;;;;;;;4980075;28;94100;-68
2021/12/24 08:19:26;;;;;;;29.90;7.50;;;;;;;;;;4981669;28;93350;-68
2021/12/24 08:21:52;;;;;;;29.02;6.10;;;;;;;;;;4986157;28;94301;-68
2021/12/24 08:24:18;;;;;;;28.38;6.60;;;;;;;;;;4971601;28;93261;-69
2021/12/24 08:26:45;;;;;;;33.05;7.82;;;;;;;;;;4970248;28;96463;-69
2021/12/24 08:29:11;;;;;;;34.35;8.65;;;;;;;;;;4975853;28;92552;-68
2021/12/24 08:31:38;;;;;;;25.98;7.85;;;;;;;;;;4970899;28;94113;-68
2021/12/24 08:34:04;;;;;;;20.73;5.93;;;;;;;;;;4975439;28;92525;-68
2021/12/24 08:36:32;;;;;;;28.95;7.07;;;;;;;;;;4973746;28;94076;-69
2021/12/24 08:38:59;;;;;;;37.80;9.60;;;;;;;;;;4975659;28;93347;-69
2021/12/24 08:41:25;;;;;;;31.42;6.43;;;;;;;;;;4983180;28;92509;-69
2021/12/24 08:43:52;;;;;;;33.42;6.80;;;;;;;;;;4975943;28;93699;-69
2021/12/24 08:46:18;;;;;;;24.17;6.45;;;;;;;;;;4974347;28;94479;-69
2021/12/24 08:48:45;;;;;;;29.67;6.70;;;;;;;;;;4980205;28;92459;-68
2021/12/24 08:51:11;;;;;;;31.85;7.97;;;;;;;;;;4984133;28;94952;-68
2021/12/24 08:53:38;;;;;;;24.80;6.15;;;;;;;;;;4982019;28;93944;-68
2021/12/24 08:56:05;;;;;;;26.35;5.95;;;;;;;;;;4982770;28;93135;-69
2021/12/24 08:58:32;;;;;;;29.45;6.50;;;;;;;;;;4974693;28;94767;-68
2021/12/24 09:00:59;;;;;;;30.10;5.95;;;;;;;;;;4975249;28;92384;-68
2021/12/24 09:03:25;;;;;;;34.05;6.65;;;;;;;;;;4979715;28;93151;-69
2021/12/24 09:05:51;;;;;;;25.15;5.75;;;;;;;;;;4974737;28;94500;-68
2021/12/24 09:08:18;;;;;;;33.53;6.65;;;;;;;;;;4980851;28;92211;-68
2021/12/24 09:10:44;;;;;;;22.38;6.18;;;;;;;;;;4989212;28;93454;-68
2021/12/24 09:13:11;;;;;;;38.38;6.95;;;;;;;;;;4981576;28;94158;-68
2021/12/24 09:15:37;;;;;;;26.35;6.80;;;;;;;;;;4980812;28;94941;-68
2021/12/24 09:18:04;;;;;;;27.73;6.75;;;;;;;;;;4975343;28;94302;-68
2021/12/24 09:20:36;;;;;;;42.70;8.15;;;;;;;;;;4974602;28;92590;-68
2021/12/24 09:23:03;;;;;;;29.50;5.90;;;;;;;;;;4975483;28;93327;-68
2021/12/24 09:25:31;;;;;;;26.30;6.78;;;;;;;;;;4974750;28;94317;-68
2021/12/24 09:27:58;;;;;;;16.98;5.43;;;;;;;;;;4979344;28;92519;-68
2021/12/24 09:30:25;;;;;;;28.08;6.85;;;;;;;;;;4974397;28;93845;-68
2021/12/24 09:32:51;;;;;;;31.40;7.28;;;;;;;;;;4977520;28;92602;-68
2021/12/24 09:35:19;;;;;;;35.58;6.55;;;;;;;;;;4978449;28;92543;-68
2021/12/24 09:37:47;;;;;;;32.38;7.50;;;;;;;;;;4984032;28;93666;-68
2021/12/24 09:40:15;;;;;;;30.52;6.65;;;;;;;;;;4983327;28;96004;-69
2021/12/24 09:42:42;;;;;;;32.88;8.10;;;;;;;;;;4977084;28;95839;-68
2021/12/24 09:45:09;;;;;;;30.55;6.70;;;;;;;;;;4985524;28;94886;-69
2021/12/24 09:47:35;;;;;;;41.42;7.65;;;;;;;;;;4974298;28;92500;-69
2021/12/24 09:50:03;;;;;;;28.23;6.18;;;;;;;;;;4975281;28;93072;-69
2021/12/24 09:52:31;;;;;;;43.58;8.55;;;;;;;;;;4987624;28;94594;-69
2021/12/24 09:55:05;;;;;;;37.97;11.32;;;;;;;;;;4973805;28;92452;-68
2021/12/24 09:57:31;;;;;;;29.33;9.10;;;;;;;;;;4986756;28;93593;-68
2021/12/24 09:59:58;;;;;;;27.80;7.90;;;;;;;;;;4981620;28;94048;-69
2021/12/24 10:02:28;;;;;;;35.50;7.75;;;;;;;;;;4985270;28;93206;-68
2021/12/24 10:04:55;;;;;;;33.60;7.97;;;;;;;;;;4972506;28;95927;-69
2021/12/24 10:07:24;;;;;;;29.25;7.50;;;;;;;;;;4973959;28;92428;-69
2021/12/24 10:09:51;;;;;;;27.08;6.60;;;;;;;;;;4973568;28;94113;-69
2021/12/24 10:12:27;;;;;;;32.63;7.10;;;;;;;;;;4980833;28;93256;-69
2021/12/24 10:14:57;;;;;;;30.92;7.53;;;;;;;;;;4982050;28;92872;-70
2021/12/24 10:17:24;;;;;;;27.30;7.32;;;;;;;;;;4975900;28;93291;-69
2021/12/24 10:19:55;;;;;;;25.80;7.32;;;;;;;;;;4988075;28;92538;-69
2021/12/24 10:22:41;;;;;;;25.50;6.67;;;;;;;;;;4981813;28;93058;-69
2021/12/24 10:25:12;;;;;;;21.95;7.50;;;;;;;;;;4981934;28;93410;-69
2021/12/24 10:27:38;;;;;;;34.85;8.05;;;;;;;;;;4981332;28;92473;-68
2021/12/24 10:30:14;;;;;;;30.73;7.53;;;;;;;;;;4971798;28;94883;-69
2021/12/24 10:32:40;;;;;;;26.98;7.13;;;;;;;;;;4981307;28;93689;-68
2021/12/24 10:35:22;;;;;;;31.95;7.35;;;;;;;;;;4980147;28;92463;-69
2021/12/24 10:38:07;;;;;;;26.27;6.10;;;;;;;;;;4980966;28;93908;-69
2021/12/24 10:40:33;;;;;;;33.92;7.53;;;;;;;;;;4980715;28;94142;-70
2021/12/24 10:43:00;;;;;;;23.42;7.13;;;;;;;;;;4981637;28;95715;-69
2021/12/24 10:45:26;;;;;;;27.92;6.95;;;;;;;;;;4983889;28;94946;-70
2021/12/24 10:47:53;;;;;;;29.60;7.50;;;;;;;;;;4986776;28;91762;-69
2021/12/24 10:55:23;;;;;;;36.92;9.00;;;;;;;;;;4978748;28;95225;-70
2021/12/24 10:57:54;;;;;;;25.83;7.38;;;;;;;;;;4981980;28;96552;-69
2021/12/24 11:00:21;;;;;;;33.58;8.27;;;;;;;;;;4978739;28;94712;-69
2021/12/24 11:02:48;;;;;;;27.48;8.65;;;;;;;;;;4987633;28;94155;-69
2021/12/24 11:05:24;;;;;;;31.75;10.43;;;;;;;;;;4979407;28;93437;-70
2021/12/24 11:07:50;;;;;;;42.03;10.05;;;;;;;;;;4979617;28;94576;-68
2021/12/24 11:10:22;;;;;;;30.38;9.95;;;;;;;;;;4975270;28;96358;-69
2021/12/24 11:12:58;;;;;;;40.95;9.95;;;;;;;;;;4986474;28;93377;-69
2021/12/24 11:15:32;;;;;;;27.23;9.55;;;;;;;;;;4972829;28;93052;-69
2021/12/24 11:18:01;;;;;;;38.80;11.05;;;;;;;;;;4987998;28;93378;-68
2021/12/24 11:20:28;;;;;;;27.80;9.77;;;;;;;;;;4980165;28;96977;-69
2021/12/24 11:23:04;;;;;;;25.48;7.95;;;;;;;;;;4980474;28;92465;-68
2021/12/24 11:25:32;;;;;;;37.05;9.70;;;;;;;;;;4975831;28;94099;-69
2021/12/24 11:27:58;;;;;;;32.47;10.32;;;;;;;;;;4972181;28;93209;-68
2021/12/24 11:30:26;;;;;;;25.73;8.77;;;;;;;;;;4975355;28;94050;-68
2021/12/24 11:32:52;;;;;;;28.60;9.65;;;;;;;;;;4973950;28;93924;-68
2021/12/24 11:35:19;;;;;;;23.23;9.60;;;;;;;;;;4978074;28;94404;-69
2021/12/24 11:37:47;;;;;;;25.98;8.77;;;;;;;;;;4972953;28;93078;-68
2021/12/24 11:40:14;;;;;;;31.42;10.40;;;;;;;;;;4975593;28;94187;-68
2021/12/24 11:42:41;;;;;;;28.35;8.48;;;;;;;;;;4977122;28;93758;-69
2021/12/24 11:45:08;;;;;;;28.10;10.30;;;;;;;;;;4972422;28;94883;-69
2021/12/24 11:47:35;;;;;;;30.90;8.40;;;;;;;;;;4982206;28;94044;-69
2021/12/24 11:50:02;;;;;;;19.23;8.50;;;;;;;;;;4977367;28;94013;-69
2021/12/24 11:52:28;;;;;;;26.65;9.23;;;;;;;;;;4975765;28;93155;-70
2021/12/24 11:54:57;;;;;;;19.85;7.70;;;;;;;;;;4985849;28;92557;-70
2021/12/24 11:57:24;;;;;;;27.70;8.73;;;;;;;;;;4977926;28;95431;-69
2021/12/24 11:59:51;;;;;;;21.23;7.47;;;;;;;;;;4979193;28;94443;-69
2021/12/24 12:02:34;;;;;;;30.45;9.10;;;;;;;;;;4975385;28;93652;-69
2021/12/24 12:05:14;;;;;;;35.08;8.50;;;;;;;;;;4980037;28;92430;-69
2021/12/24 12:07:42;;;;;;;30.33;8.23;;;;;;;;;;4981730;28;93156;-70
2021/12/24 12:10:09;;;;;;;28.88;7.70;;;;;;;;;;4981656;28;95786;-67
2021/12/24 12:12:37;;;;;;;32.25;8.65;;;;;;;;;;4976727;28;92908;-68
2021/12/24 12:15:23;;;;;;;32.75;8.60;;;;;;;;;;4980672;28;93924;-69
2021/12/24 12:17:54;;;;;;;36.80;8.07;;;;;;;;;;4985271;28;94098;-70
2021/12/24 12:20:41;;;;;;;23.15;6.72;;;;;;;;;;4984889;28;93220;-69
2021/12/24 12:23:14;;;;;;;23.92;7.07;;;;;;;;;;4976334;28;93442;-70
2021/12/24 12:25:41;;;;;;;35.08;8.20;;;;;;;;;;4983832;28;94123;-69
2021/12/24 12:28:16;;;;;;;22.77;7.03;;;;;;;;;;4976110;28;93639;-69
2021/12/24 12:30:49;;;;;;;25.65;5.93;;;;;;;;;;4985948;28;92976;-70
2021/12/24 12:33:17;;;;;;;17.45;4.47;;;;;;;;;;4975372;28;96253;-69
2021/12/24 12:35:47;;;;;;;12.93;5.28;;;;;;;;;;4982062;28;94921;-69
2021/12/24 12:38:26;;;;;;;13.20;4.60;;;;;;;;;;4982731;28;95909;-71
2021/12/24 12:40:53;;;;;;;19.63;5.90;;;;;;;;;;4986552;28;92998;-69
2021/12/24 12:43:20;;;;;;;16.08;5.35;;;;;;;;;;4984617;28;92528;-69
2021/12/24 12:45:48;;;;;;;12.38;3.95;;;;;;;;;;4990179;28;95770;-69
2021/12/24 12:48:24;;;;;;;16.33;5.25;;;;;;;;;;4988414;28;93286;-69
2021/12/24 12:50:51;;;;;;;15.52;5.53;;;;;;;;;;4986667;28;93360;-70
2021/12/24 12:53:35;;;;;;;7.40;4.00;;;;;;;;;;4982465;28;94889;-70
2021/12/24 12:56:10;;;;;;;8.60;4.10;;;;;;;;;;4976446;28;92618;-69
2021/12/24 12:58:37;;;;;;;13.52;4.18;;;;;;;;;;4981868;28;93158;-69
2021/12/24 13:01:05;;;;;;;7.97;3.92;;;;;;;;;;4982498;28;96554;-68
2021/12/24 13:03:32;;;;;;;12.38;4.45;;;;;;;;;;4978397;28;94363;-68
2021/12/24 13:06:00;;;;;;;15.68;5.13;;;;;;;;;;4986009;28;94450;-68
2021/12/24 13:08:28;;;;;;;17.98;4.90;;;;;;;;;;4988923;28;94059;-69
2021/12/24 13:10:55;;;;;;;13.00;5.03;;;;;;;;;;4990218;28;92821;-68
2021/12/24 13:13:22;;;;;;;17.38;5.45;;;;;;;;;;4992444;28;93250;-68
2021/12/24 13:15:49;;;;;;;16.90;5.18;;;;;;;;;;4994354;28;93150;-69
2021/12/24 13:18:30;;;;;;;15.52;5.95;;;;;;;;;;4975485;28;93927;-69
2021/12/24 13:23:31;;;;;;;15.25;5.95;;;;;;;;;;4988760;28;92578;-69
2021/12/24 13:26:06;;;;;;;17.85;5.93;;;;;;;;;;4986863;28;95334;-69
2021/12/24 13:28:32;;;;;;;15.55;6.07;;;;;;;;;;4986114;28;94605;-69
2021/12/24 13:31:11;;;;;;;17.13;6.22;;;;;;;;;;4989058;28;92939;-69
2021/12/24 13:33:38;;;;;;;12.05;4.57;;;;;;;;;;4992476;28;96490;-68
2021/12/24 13:36:05;;;;;;;14.88;5.47;;;;;;;;;;4983189;28;93227;-69
2021/12/24 13:38:31;;;;;;;11.57;4.53;;;;;;;;;;4991913;28;94187;-69
2021/12/24 13:40:58;;;;;;;11.50;4.28;;;;;;;;;;4979471;28;95648;-69
2021/12/24 13:43:25;;;;;;;11.40;4.85;;;;;;;;;;4982043;28;91806;-69
2021/12/24 13:45:54;;;;;;;13.13;5.53;;;;;;;;;;4993730;28;92857;-69
2021/12/24 13:48:24;;;;;;;13.70;4.85;;;;;;;;;;4988439;28;93066;-69
2021/12/24 13:56:38;;;;;;;14.85;4.85;;;;;;;;;;4991476;28;94017;-69
2021/12/24 13:59:04;;;;;;;20.20;6.43;;;;;;;;;;4993553;28;94149;-70
2021/12/24 14:01:31;;;;;;;11.27;5.30;;;;;;;;;;4989136;28;93132;-70
2021/12/24 14:03:59;;;;;;;16.33;5.95;;;;;;;;;;4992515;28;92434;-68
2021/12/24 14:06:33;;;;;;;10.40;6.63;;;;;;;;;;4991067;28;93989;-69
2021/12/24 14:09:18;;;;;;;24.88;7.90;;;;;;;;;;4989071;28;93819;-69
2021/12/24 14:11:47;;;;;;;7.05;3.78;;;;;;;;;;4987547;28;92440;-69
2021/12/24 14:14:19;;;;;;;1.70;1.60;;;;;;;;;;4993198;28;93918;-68
2021/12/24 14:17:05;;;;;;;2.58;1.83;;;;;;;;;;4975825;28;96167;-68
2021/12/24 14:19:48;;;;;;;1.58;1.48;;;;;;;;;;4973683;28;92491;-69
2021/12/24 14:22:16;;;;;;;3.25;1.50;;;;;;;;;;4989882;28;93915;-70
2021/12/24 14:24:51;;;;;;;1.50;1.40;;;;;;;;;;4996319;28;93447;-69
2021/12/24 14:27:21;;;;;;;1.92;1.50;;;;;;;;;;4984222;28;94406;-70
2021/12/24 14:29:55;;;;;;;2.70;1.58;;;;;;;;;;4989747;28;94293;-69
2021/12/24 14:32:29;;;;;;;2.50;1.48;;;;;;;;;;4991184;28;92548;-68
2021/12/24 14:34:56;;;;;;;1.35;1.23;;;;;;;;;;4992549;28;93921;-68
2021/12/24 14:37:22;;;;;;;1.33;1.23;;;;;;;;;;4990517;28;93131;-67
2021/12/24 14:39:56;;;;;;;1.27;1.20;;;;;;;;;;4991982;28;92501;-68
2021/12/24 14:42:27;;;;;;;1.60;1.30;;;;;;;;;;4989620;28;96446;-69
2021/12/24 14:45:12;;;;;;;1.52;1.42;;;;;;;;;;4982210;28;93596;-69
2021/12/24 14:47:39;;;;;;;3.95;1.40;;;;;;;;;;4989747;28;94156;-69
2021/12/24 14:50:09;;;;;;;1.85;1.40;;;;;;;;;;4984742;28;93139;-67
2021/12/24 14:52:35;;;;;;;1.88;1.15;;;;;;;;;;4983662;28;92902;-68
2021/12/24 14:55:16;;;;;;;1.35;1.23;;;;;;;;;;4984231;28;94040;-68
2021/12/24 14:57:45;;;;;;;1.63;1.63;;;;;;;;;;4984505;28;94130;-68
2021/12/24 15:00:13;;;;;;;2.25;1.33;;;;;;;;;;4984239;28;91792;-68
2021/12/24 15:02:40;;;;;;;4.38;1.42;;;;;;;;;;4979700;28;92501;-68
2021/12/24 15:05:07;;;;;;;4.78;1.85;;;;;;;;;;4979243;28;93440;-68
2021/12/24 15:07:34;;;;;;;3.67;1.92;;;;;;;;;;4986659;28;94916;-68
2021/12/24 15:10:10;;;;;;;2.33;2.22;;;;;;;;;;4972707;28;94223;-69
2021/12/24 15:12:51;;;;;;;2.20;2.00;;;;;;;;;;4990470;28;92548;-69
2021/12/24 15:15:18;;;;;;;2.72;2.53;;;;;;;;;;4991641;28;93320;-68
2021/12/24 15:17:45;;;;;;;3.50;3.22;;;;;;;;;;4989674;28;94004;-69
2021/12/24 15:20:12;;;;;;;3.08;2.88;;;;;;;;;;4990581;28;92612;-68
2021/12/24 15:22:39;;;;;;;3.20;3.00;;;;;;;;;;4982149;28;94131;-69
2021/12/24 15:25:07;;;;;;;5.32;3.60;;;;;;;;;;4972183;28;93375;-68
2021/12/24 15:27:36;;;;;;;4.00;3.80;;;;;;;;;;4983578;28;92582;-68
2021/12/24 15:30:06;;;;;;;4.22;3.95;;;;;;;;;;4993344;28;93163;-69
2021/12/24 15:32:33;;;;;;;4.32;4.10;;;;;;;;;;4989242;28;94962;-68
2021/12/24 15:34:59;;;;;;;4.03;3.72;;;;;;;;;;4980282;28;95513;-68
2021/12/24 15:37:25;;;;;;;5.55;4.60;;;;;;;;;;4978812;28;94458;-70
2021/12/24 15:39:52;;;;;;;4.97;4.72;;;;;;;;;;4990888;28;92876;-68
2021/12/24 15:42:19;;;;;;;4.95;4.65;;;;;;;;;;4994939;28;92870;-68
2021/12/24 15:44:48;;;;;;;5.60;5.20;;;;;;;;;;4992380;28;93710;-69
2021/12/24 15:47:15;;;;;;;6.43;5.93;;;;;;;;;;4994558;28;92503;-68
2021/12/24 15:49:41;;;;;;;7.15;5.32;;;;;;;;;;4982219;28;94319;-68
2021/12/24 15:52:08;;;;;;;7.55;6.00;;;;;;;;;;4978596;28;94167;-69
2021/12/24 15:54:34;;;;;;;5.70;5.30;;;;;;;;;;4975020;28;93918;-68
2021/12/24 15:57:01;;;;;;;6.55;5.95;;;;;;;;;;4973925;28;96594;-68
2021/12/24 15:59:31;;;;;;;5.82;5.20;;;;;;;;;;4975574;28;92470;-69
2021/12/24 16:01:58;;;;;;;6.72;6.00;;;;;;;;;;4976807;28;94367;-69
2021/12/24 16:04:25;;;;;;;6.45;5.85;;;;;;;;;;4982408;28;93497;-69
2021/12/24 16:06:52;;;;;;;7.82;6.97;;;;;;;;;;4979872;28;92506;-69
2021/12/24 16:09:23;;;;;;;6.25;5.85;;;;;;;;;;4985200;28;94141;-69
2021/12/24 16:11:50;;;;;;;7.80;7.10;;;;;;;;;;4994113;28;94618;-69
2021/12/24 16:14:17;;;;;;;6.10;5.70;;;;;;;;;;4999765;28;91720;-69
2021/12/24 16:16:45;;;;;;;6.70;6.20;;;;;;;;;;4980013;28;93869;-71
2021/12/24 16:19:12;;;;;;;9.18;6.55;;;;;;;;;;4982757;28;92581;-68
2021/12/24 16:21:38;;;;;;;7.90;7.20;;;;;;;;;;4973547;28;94953;-69